sensor_id;sensor_type;location;lat;lon;timestamp;temperature;humidity
29007;DHT22;16104;48.642;9.008;2023-06-04T01:00:55;18.30;45.00
29007;DHT22;16104;48.642;9.008;2023-06-04T01:06:00;18.30;45.60
29007;DHT22;16104;48.642;9.008;2023-06-04T01:10:59;18.20;45.40
29007;DHT22;16104;48.642;9.008;2023-06-04T02:01:43;17.30;46.90
29007;DHT22;16104;48.642;9.008;2023-06-04T02:06:38;17.20;47.40
29007;DHT22;16104;48.642;9.008;2023-06-04T02:11:34;17.10;47.70
29007;DHT22;16104;48.642;9.008;2023-06-04T03:02:18;16.40;48.70
29007;DHT22;16104;48.642;9.008;2023-06-04T03:07:14;16.40;48.80
29007;DHT22;16104;48.642;9.008;2023-06-04T03:12:10;16.30;49.10
29007;DHT22;16104;48.642;9.008;2023-06-04T03:17:06;16.30;49.30
29007;DHT22;16104;48.642;9.008;2023-06-04T03:22:06;16.30;49.60
29007;DHT22;16104;48.642;9.008;2023-06-04T03:27:03;16.20;49.80
29007;DHT22;16104;48.642;9.008;2023-06-04T03:31:59;16.10;49.80
29007;DHT22;16104;48.642;9.008;2023-06-04T03:36:55;16.00;49.70
29007;DHT22;16104;48.642;9.008;2023-06-04T03:41:51;15.90;49.80
29007;DHT22;16104;48.642;9.008;2023-06-04T03:46:46;15.80;49.90
29007;DHT22;16104;48.642;9.008;2023-06-04T03:51:42;15.70;50.30
29007;DHT22;16104;48.642;9.008;2023-06-04T03:56:37;15.70;50.40
29007;DHT22;16104;48.642;9.008;2023-06-04T04:01:33;15.60;50.50
29007;DHT22;16104;48.642;9.008;2023-06-04T04:06:29;15.50;50.80
29007;DHT22;16104;48.642;9.008;2023-06-04T04:11:25;15.50;51.00
29007;DHT22;16104;48.642;9.008;2023-06-04T04:16:21;15.50;50.90
29007;DHT22;16104;48.642;9.008;2023-06-04T04:21:16;15.40;50.90
29007;DHT22;16104;48.642;9.008;2023-06-04T04:26:12;15.40;51.00
29007;DHT22;16104;48.642;9.008;2023-06-04T04:31:12;15.40;51.20
29007;DHT22;16104;48.642;9.008;2023-06-04T04:36:07;15.40;50.40
29007;DHT22;16104;48.642;9.008;2023-06-04T04:41:09;15.40;50.90
29007;DHT22;16104;48.642;9.008;2023-06-04T04:46:05;15.40;51.10
29007;DHT22;16104;48.642;9.008;2023-06-04T04:51:01;15.50;51.10
29007;DHT22;16104;48.642;9.008;2023-06-04T04:55:57;15.50;51.60
29007;DHT22;16104;48.642;9.008;2023-06-04T05:00:53;15.60;52.90
29007;DHT22;16104;48.642;9.008;2023-06-04T05:05:48;15.70;52.60
29007;DHT22;16104;48.642;9.008;2023-06-04T05:10:43;15.70;52.80
29007;DHT22;16104;48.642;9.008;2023-06-04T05:15:39;15.90;52.40
29007;DHT22;16104;48.642;9.008;2023-06-04T05:20:35;16.00;52.70
29007;DHT22;16104;48.642;9.008;2023-06-04T05:25:32;16.10;52.70
29007;DHT22;16104;48.642;9.008;2023-06-04T05:30:28;16.30;53.50
29007;DHT22;16104;48.642;9.008;2023-06-04T05:35:23;16.50;52.60
29007;DHT22;16104;48.642;9.008;2023-06-04T05:40:20;16.60;52.50
29007;DHT22;16104;48.642;9.008;2023-06-04T05:45:16;16.70;51.10
29007;DHT22;16104;48.642;9.008;2023-06-04T05:50:12;16.90;50.50
29007;DHT22;16104;48.642;9.008;2023-06-04T05:55:08;17.10;50.40
29007;DHT22;16104;48.642;9.008;2023-06-04T06:00:04;17.30;49.80
29007;DHT22;16104;48.642;9.008;2023-06-04T06:05:05;17.40;49.30
29007;DHT22;16104;48.642;9.008;2023-06-04T06:10:03;17.60;49.00
29007;DHT22;16104;48.642;9.008;2023-06-04T06:14:59;17.80;48.70
29007;DHT22;16104;48.642;9.008;2023-06-04T06:19:55;18.00;48.40
29007;DHT22;16104;48.642;9.008;2023-06-04T06:24:51;18.20;48.10
29007;DHT22;16104;48.642;9.008;2023-06-04T06:29:46;18.40;48.00
29007;DHT22;16104;48.642;9.008;2023-06-04T06:34:42;18.60;47.80
29007;DHT22;16104;48.642;9.008;2023-06-04T06:39:37;18.80;47.20
29007;DHT22;16104;48.642;9.008;2023-06-04T06:44:33;19.00;47.10
29007;DHT22;16104;48.642;9.008;2023-06-04T06:49:28;19.10;46.50
29007;DHT22;16104;48.642;9.008;2023-06-04T06:54:24;19.30;46.20
29007;DHT22;16104;48.642;9.008;2023-06-04T06:59:19;19.50;46.20
29007;DHT22;16104;48.642;9.008;2023-06-04T07:04:15;19.70;46.10
29007;DHT22;16104;48.642;9.008;2023-06-04T07:09:11;19.90;45.70
29007;DHT22;16104;48.642;9.008;2023-06-04T07:14:07;20.10;45.50
29007;DHT22;16104;48.642;9.008;2023-06-04T07:19:03;20.30;45.10
29007;DHT22;16104;48.642;9.008;2023-06-04T07:23:58;20.50;44.60
29007;DHT22;16104;48.642;9.008;2023-06-04T07:28:54;20.70;44.40
29007;DHT22;16104;48.642;9.008;2023-06-04T07:33:49;20.90;43.90
29007;DHT22;16104;48.642;9.008;2023-06-04T07:38:45;21.20;43.60
29007;DHT22;16104;48.642;9.008;2023-06-04T07:43:42;21.30;43.50
29007;DHT22;16104;48.642;9.008;2023-06-04T07:48:38;21.50;43.10
29007;DHT22;16104;48.642;9.008;2023-06-04T07:53:33;21.70;42.90
29007;DHT22;16104;48.642;9.008;2023-06-04T07:58:29;21.90;43.20
29007;DHT22;16104;48.642;9.008;2023-06-04T08:03:25;22.10;43.10
29007;DHT22;16104;48.642;9.008;2023-06-04T08:08:20;22.30;42.50
29007;DHT22;16104;48.642;9.008;2023-06-04T08:13:16;22.60;42.70
29007;DHT22;16104;48.642;9.008;2023-06-04T08:18:11;22.80;42.10
29007;DHT22;16104;48.642;9.008;2023-06-04T08:23:07;23.00;42.20
29007;DHT22;16104;48.642;9.008;2023-06-04T08:28:02;23.20;41.40
29007;DHT22;16104;48.642;9.008;2023-06-04T08:32:58;23.40;41.30
29007;DHT22;16104;48.642;9.008;2023-06-04T08:37:53;23.70;40.50
29007;DHT22;16104;48.642;9.008;2023-06-04T08:42:50;23.80;40.60
29007;DHT22;16104;48.642;9.008;2023-06-04T08:47:50;24.10;39.60
29007;DHT22;16104;48.642;9.008;2023-06-04T08:52:46;24.30;38.90
29007;DHT22;16104;48.642;9.008;2023-06-04T08:57:42;24.50;38.90
29007;DHT22;16104;48.642;9.008;2023-06-04T09:02:38;24.70;38.60
29007;DHT22;16104;48.642;9.008;2023-06-04T09:07:36;24.90;38.20
29007;DHT22;16104;48.642;9.008;2023-06-04T09:12:36;25.00;38.20
29007;DHT22;16104;48.642;9.008;2023-06-04T09:17:35;25.30;37.00
29007;DHT22;16104;48.642;9.008;2023-06-04T09:22:35;25.50;36.90
29007;DHT22;16104;48.642;9.008;2023-06-04T09:27:38;25.70;36.50
29007;DHT22;16104;48.642;9.008;2023-06-04T09:32:35;25.90;36.20
29007;DHT22;16104;48.642;9.008;2023-06-04T09:37:30;26.20;36.10
29007;DHT22;16104;48.642;9.008;2023-06-04T09:42:26;26.40;36.10
29007;DHT22;16104;48.642;9.008;2023-06-04T09:47:22;26.70;35.40
29007;DHT22;16104;48.642;9.008;2023-06-04T09:52:17;26.90;36.00
29007;DHT22;16104;48.642;9.008;2023-06-04T09:57:19;27.10;35.30
29007;DHT22;16104;48.642;9.008;2023-06-04T10:02:19;27.30;33.70
29007;DHT22;16104;48.642;9.008;2023-06-04T10:07:15;27.50;34.00
29007;DHT22;16104;48.642;9.008;2023-06-04T10:12:13;27.80;33.90
29007;DHT22;16104;48.642;9.008;2023-06-04T10:17:12;27.90;33.00
29007;DHT22;16104;48.642;9.008;2023-06-04T10:22:08;28.00;32.90
29007;DHT22;16104;48.642;9.008;2023-06-04T10:27:06;28.20;32.80
29007;DHT22;16104;48.642;9.008;2023-06-04T10:32:06;28.30;32.10
29007;DHT22;16104;48.642;9.008;2023-06-04T10:37:03;28.40;32.10
29007;DHT22;16104;48.642;9.008;2023-06-04T10:42:03;28.50;32.60
29007;DHT22;16104;48.642;9.008;2023-06-04T10:46:58;28.70;31.50
29007;DHT22;16104;48.642;9.008;2023-06-04T10:51:55;28.90;32.20
29007;DHT22;16104;48.642;9.008;2023-06-04T10:56:58;29.10;31.50
29007;DHT22;16104;48.642;9.008;2023-06-04T11:02:04;29.20;30.90
29007;DHT22;16104;48.642;9.008;2023-06-04T11:07:05;29.40;30.00
29007;DHT22;16104;48.642;9.008;2023-06-04T11:12:05;29.60;30.40
29007;DHT22;16104;48.642;9.008;2023-06-04T11:17:11;29.80;30.60
29007;DHT22;16104;48.642;9.008;2023-06-04T11:22:10;30.00;29.40
29007;DHT22;16104;48.642;9.008;2023-06-04T11:27:06;30.20;29.20
29007;DHT22;16104;48.642;9.008;2023-06-04T11:32:01;30.40;30.00
29007;DHT22;16104;48.642;9.008;2023-06-04T11:37:10;30.60;30.00
29007;DHT22;16104;48.642;9.008;2023-06-04T11:42:06;30.70;29.40
29007;DHT22;16104;48.642;9.008;2023-06-04T11:47:07;30.70;28.30
29007;DHT22;16104;48.642;9.008;2023-06-04T11:52:04;30.70;28.30
29007;DHT22;16104;48.642;9.008;2023-06-04T11:56:59;30.60;27.90
29007;DHT22;16104;48.642;9.008;2023-06-04T12:01:55;30.60;29.10
29007;DHT22;16104;48.642;9.008;2023-06-04T12:06:54;30.70;28.60
29007;DHT22;16104;48.642;9.008;2023-06-04T12:11:49;30.90;28.20
29007;DHT22;16104;48.642;9.008;2023-06-04T12:16:59;31.00;28.00
29007;DHT22;16104;48.642;9.008;2023-06-04T12:22:06;30.90;27.50
29007;DHT22;16104;48.642;9.008;2023-06-04T12:27:06;31.00;27.50
29007;DHT22;16104;48.642;9.008;2023-06-04T12:32:06;31.00;27.70
29007;DHT22;16104;48.642;9.008;2023-06-04T12:37:07;31.10;27.40
29007;DHT22;16104;48.642;9.008;2023-06-04T12:42:06;31.20;27.90
29007;DHT22;16104;48.642;9.008;2023-06-04T12:47:04;31.50;27.90
29007;DHT22;16104;48.642;9.008;2023-06-04T12:51:59;31.80;27.20
29007;DHT22;16104;48.642;9.008;2023-06-04T12:56:55;31.90;26.70
29007;DHT22;16104;48.642;9.008;2023-06-04T13:01:54;32.10;26.90
29007;DHT22;16104;48.642;9.008;2023-06-04T13:06:50;32.30;26.90
29007;DHT22;16104;48.642;9.008;2023-06-04T13:11:48;32.60;26.10
29007;DHT22;16104;48.642;9.008;2023-06-04T13:16:43;32.60;25.20
29007;DHT22;16104;48.642;9.008;2023-06-04T13:21:43;32.50;25.60
29007;DHT22;16104;48.642;9.008;2023-06-04T13:26:39;32.60;26.00
29007;DHT22;16104;48.642;9.008;2023-06-04T13:31:37;32.70;25.70
29007;DHT22;16104;48.642;9.008;2023-06-04T13:36:34;33.00;25.00
29007;DHT22;16104;48.642;9.008;2023-06-04T13:41:30;32.90;24.70
29007;DHT22;16104;48.642;9.008;2023-06-04T13:46:26;32.70;24.60
29007;DHT22;16104;48.642;9.008;2023-06-04T13:51:21;32.60;24.70
29007;DHT22;16104;48.642;9.008;2023-06-04T13:56:17;32.70;24.80
29007;DHT22;16104;48.642;9.008;2023-06-04T14:01:12;32.80;24.00
29007;DHT22;16104;48.642;9.008;2023-06-04T14:06:08;32.90;24.20
29007;DHT22;16104;48.642;9.008;2023-06-04T14:11:03;33.00;23.60
29007;DHT22;16104;48.642;9.008;2023-06-04T14:15:59;33.10;23.60
29007;DHT22;16104;48.642;9.008;2023-06-04T14:20:54;33.20;24.10
29007;DHT22;16104;48.642;9.008;2023-06-04T14:25:50;33.40;23.60
29007;DHT22;16104;48.642;9.008;2023-06-04T14:30:46;33.50;23.00
29007;DHT22;16104;48.642;9.008;2023-06-04T14:35:41;33.60;23.10
29007;DHT22;16104;48.642;9.008;2023-06-04T14:40:41;33.50;22.70
29007;DHT22;16104;48.642;9.008;2023-06-04T14:45:38;33.40;22.30
29007;DHT22;16104;48.642;9.008;2023-06-04T14:50:35;33.20;22.80
29007;DHT22;16104;48.642;9.008;2023-06-04T14:55:31;33.20;22.80
29007;DHT22;16104;48.642;9.008;2023-06-04T15:00:26;33.20;22.60
29007;DHT22;16104;48.642;9.008;2023-06-04T15:05:22;33.20;22.50
29007;DHT22;16104;48.642;9.008;2023-06-04T15:10:17;33.10;22.70
29007;DHT22;16104;48.642;9.008;2023-06-04T15:15:13;32.90;22.50
29007;DHT22;16104;48.642;9.008;2023-06-04T15:20:09;32.80;23.00
29007;DHT22;16104;48.642;9.008;2023-06-04T15:25:04;32.70;23.00
29007;DHT22;16104;48.642;9.008;2023-06-04T15:30:00;32.60;22.60
29007;DHT22;16104;48.642;9.008;2023-06-04T15:34:56;32.40;22.60
29007;DHT22;16104;48.642;9.008;2023-06-04T15:39:53;32.30;22.70
29007;DHT22;16104;48.642;9.008;2023-06-04T15:44:48;32.20;22.90
29007;DHT22;16104;48.642;9.008;2023-06-04T15:49:44;32.10;22.90
29007;DHT22;16104;48.642;9.008;2023-06-04T15:54:39;32.00;22.60
29007;DHT22;16104;48.642;9.008;2023-06-04T15:59:35;31.90;22.90
29007;DHT22;16104;48.642;9.008;2023-06-04T16:04:30;31.80;22.80
29007;DHT22;16104;48.642;9.008;2023-06-04T16:09:27;31.70;23.40
29007;DHT22;16104;48.642;9.008;2023-06-04T16:14:23;31.60;22.90
29007;DHT22;16104;48.642;9.008;2023-06-04T16:19:18;31.50;22.70
29007;DHT22;16104;48.642;9.008;2023-06-04T16:24:14;31.40;23.10
29007;DHT22;16104;48.642;9.008;2023-06-04T16:29:11;31.20;23.20
29007;DHT22;16104;48.642;9.008;2023-06-04T16:34:07;31.00;22.80
29007;DHT22;16104;48.642;9.008;2023-06-04T16:39:03;30.80;22.80
29007;DHT22;16104;48.642;9.008;2023-06-04T16:44:00;30.70;23.00
29007;DHT22;16104;48.642;9.008;2023-06-04T16:48:56;30.50;22.90
29007;DHT22;16104;48.642;9.008;2023-06-04T16:53:51;30.40;23.40
29007;DHT22;16104;48.642;9.008;2023-06-04T16:58:47;30.40;23.10
29007;DHT22;16104;48.642;9.008;2023-06-04T17:03:43;30.30;23.20
29007;DHT22;16104;48.642;9.008;2023-06-04T17:08:38;30.30;23.20
29007;DHT22;16104;48.642;9.008;2023-06-04T17:13:34;30.30;22.90
29007;DHT22;16104;48.642;9.008;2023-06-04T17:18:29;30.30;23.20
29007;DHT22;16104;48.642;9.008;2023-06-04T17:23:25;30.30;23.20
29007;DHT22;16104;48.642;9.008;2023-06-04T17:28:21;30.20;23.10
29007;DHT22;16104;48.642;9.008;2023-06-04T17:33:17;30.20;23.20
29007;DHT22;16104;48.642;9.008;2023-06-04T17:38:12;30.10;23.10
29007;DHT22;16104;48.642;9.008;2023-06-04T17:43:08;30.00;24.40
29007;DHT22;16104;48.642;9.008;2023-06-04T17:48:03;30.00;23.80
29007;DHT22;16104;48.642;9.008;2023-06-04T17:53:00;30.10;23.60
29007;DHT22;16104;48.642;9.008;2023-06-04T17:57:56;30.10;23.40
29007;DHT22;16104;48.642;9.008;2023-06-04T18:02:51;30.10;23.70
29007;DHT22;16104;48.642;9.008;2023-06-04T18:07:47;30.10;23.40
29007;DHT22;16104;48.642;9.008;2023-06-04T18:12:46;30.00;23.30
29007;DHT22;16104;48.642;9.008;2023-06-04T18:17:41;29.90;23.30
29007;DHT22;16104;48.642;9.008;2023-06-04T18:22:38;29.70;24.00
29007;DHT22;16104;48.642;9.008;2023-06-04T18:27:34;29.60;23.60
29007;DHT22;16104;48.642;9.008;2023-06-04T18:32:31;29.30;23.60
29007;DHT22;16104;48.642;9.008;2023-06-04T18:37:26;29.00;23.70
29007;DHT22;16104;48.642;9.008;2023-06-04T18:42:22;28.70;23.80
29007;DHT22;16104;48.642;9.008;2023-06-04T18:47:17;28.50;24.20
29007;DHT22;16104;48.642;9.008;2023-06-04T18:52:13;28.10;24.60
29007;DHT22;16104;48.642;9.008;2023-06-04T18:57:08;27.80;24.70
29007;DHT22;16104;48.642;9.008;2023-06-04T19:02:07;27.60;24.80
29007;DHT22;16104;48.642;9.008;2023-06-04T19:07:03;27.30;25.00
29007;DHT22;16104;48.642;9.008;2023-06-04T19:11:58;27.10;25.00
29007;DHT22;16104;48.642;9.008;2023-06-04T19:16:54;26.80;25.20
29007;DHT22;16104;48.642;9.008;2023-06-04T19:21:49;26.60;25.40
29007;DHT22;16104;48.642;9.008;2023-06-04T19:26:50;26.30;25.50
29007;DHT22;16104;48.642;9.008;2023-06-04T19:31:46;26.10;25.80
29007;DHT22;16104;48.642;9.008;2023-06-04T19:36:41;25.80;25.70
29007;DHT22;16104;48.642;9.008;2023-06-04T19:41:37;25.60;25.90
29007;DHT22;16104;48.642;9.008;2023-06-04T19:46:33;25.40;26.20
29007;DHT22;16104;48.642;9.008;2023-06-04T19:51:28;25.20;26.40
29007;DHT22;16104;48.642;9.008;2023-06-04T19:56:24;25.00;26.40
29007;DHT22;16104;48.642;9.008;2023-06-04T20:01:21;24.80;26.50
29007;DHT22;16104;48.642;9.008;2023-06-04T20:06:16;24.60;26.70
29007;DHT22;16104;48.642;9.008;2023-06-04T20:11:12;24.40;27.00
29007;DHT22;16104;48.642;9.008;2023-06-04T20:16:07;24.30;27.10
29007;DHT22;16104;48.642;9.008;2023-06-04T20:21:03;24.00;27.10
29007;DHT22;16104;48.642;9.008;2023-06-04T20:25:58;23.90;27.30
29007;DHT22;16104;48.642;9.008;2023-06-04T20:30:54;23.70;27.40
29007;DHT22;16104;48.642;9.008;2023-06-04T20:35:50;23.60;27.60
29007;DHT22;16104;48.642;9.008;2023-06-04T20:40:46;23.40;27.80
29007;DHT22;16104;48.642;9.008;2023-06-04T20:45:41;23.30;28.10
29007;DHT22;16104;48.642;9.008;2023-06-04T20:50:37;23.20;28.20
29007;DHT22;16104;48.642;9.008;2023-06-04T20:55:33;23.00;28.30
29007;DHT22;16104;48.642;9.008;2023-06-04T21:00:30;22.90;28.40
29007;DHT22;16104;48.642;9.008;2023-06-04T21:05:26;22.70;28.60
29007;DHT22;16104;48.642;9.008;2023-06-04T21:10:22;22.70;28.80
29007;DHT22;16104;48.642;9.008;2023-06-04T21:15:17;22.50;28.90
29007;DHT22;16104;48.642;9.008;2023-06-04T21:20:13;22.40;29.10
29007;DHT22;16104;48.642;9.008;2023-06-04T21:25:09;22.20;29.20
29007;DHT22;16104;48.642;9.008;2023-06-04T21:30:05;22.10;29.30
29007;DHT22;16104;48.642;9.008;2023-06-04T21:35:01;22.00;29.50
29007;DHT22;16104;48.642;9.008;2023-06-04T21:39:57;21.90;29.60
29007;DHT22;16104;48.642;9.008;2023-06-04T21:44:52;21.80;29.80
29007;DHT22;16104;48.642;9.008;2023-06-04T21:49:47;21.70;29.90
29007;DHT22;16104;48.642;9.008;2023-06-04T21:54:43;21.60;30.00
29007;DHT22;16104;48.642;9.008;2023-06-04T21:59:38;21.50;30.20
29007;DHT22;16104;48.642;9.008;2023-06-04T22:04:34;21.40;30.60
29007;DHT22;16104;48.642;9.008;2023-06-04T22:09:30;21.30;30.40
29007;DHT22;16104;48.642;9.008;2023-06-04T22:14:25;21.20;30.80
29007;DHT22;16104;48.642;9.008;2023-06-04T22:19:21;21.10;30.90
29007;DHT22;16104;48.642;9.008;2023-06-04T22:24:16;21.00;31.20
29007;DHT22;16104;48.642;9.008;2023-06-04T22:29:12;20.90;31.80
29007;DHT22;16104;48.642;9.008;2023-06-04T22:34:07;20.80;32.30
29007;DHT22;16104;48.642;9.008;2023-06-04T22:39:03;20.70;32.70
29007;DHT22;16104;48.642;9.008;2023-06-04T22:43:58;20.50;32.90
29007;DHT22;16104;48.642;9.008;2023-06-04T22:48:54;20.40;33.00
29007;DHT22;16104;48.642;9.008;2023-06-04T22:53:49;20.20;33.40
29007;DHT22;16104;48.642;9.008;2023-06-04T22:58:45;20.10;33.60
29007;DHT22;16104;48.642;9.008;2023-06-04T23:03:41;19.90;33.80
29007;DHT22;16104;48.642;9.008;2023-06-04T23:08:36;19.70;34.40
29007;DHT22;16104;48.642;9.008;2023-06-04T23:13:32;19.50;34.40
29007;DHT22;16104;48.642;9.008;2023-06-04T23:18:27;19.40;34.60
29007;DHT22;16104;48.642;9.008;2023-06-04T23:23:23;19.40;35.10
29007;DHT22;16104;48.642;9.008;2023-06-04T23:28:18;19.20;35.70
29007;DHT22;16104;48.642;9.008;2023-06-04T23:33:14;19.10;35.90
29007;DHT22;16104;48.642;9.008;2023-06-04T23:38:10;19.00;36.20
29007;DHT22;16104;48.642;9.008;2023-06-04T23:43:06;18.90;36.10
29007;DHT22;16104;48.642;9.008;2023-06-04T23:48:01;18.80;36.10
29007;DHT22;16104;48.642;9.008;2023-06-04T23:52:57;18.70;36.50
29007;DHT22;16104;48.642;9.008;2023-06-04T23:57:52;18.60;36.80
